Time;durP1;ratioP1;P1;durP2;ratioP2;P2;SDS_P1;SDS_P2;PMS_P1;PMS_P2;Temp;Humidity;BMP_temperature;BMP_pressure;BME280_temperature;BME280_humidity;BME280_pressure;Samples;Min_cycle;Max_cycle;Signal;HPM_P1;HPM_P2
2022/09/29 00:00:32;;;;;;;5.63;3.08;;;17.60;90.80;;;;;;6214733;23;20001;-79
2022/09/29 00:02:57;;;;;;;8.88;4.13;;;17.60;90.80;;;;;;6189347;23;20078;-79
2022/09/29 00:05:23;;;;;;;5.93;3.70;;;17.40;91.20;;;;;;6215473;23;20001;-79
2022/09/29 00:07:49;;;;;;;7.18;3.90;;;17.40;91.30;;;;;;6216255;23;20001;-79
2022/09/29 00:10:15;;;;;;;14.25;4.65;;;17.20;91.60;;;;;;6215230;23;20119;-78
2022/09/29 00:12:40;;;;;;;5.20;2.75;;;17.30;91.80;;;;;;6216133;23;19996;-78
2022/09/29 00:15:07;;;;;;;9.00;2.92;;;17.30;91.40;;;;;;6215841;23;20000;-78
2022/09/29 00:17:32;;;;;;;9.10;4.88;;;17.30;91.40;;;;;;6215730;23;20008;-78
2022/09/29 00:19:58;;;;;;;8.93;4.15;;;17.20;91.80;;;;;;6215604;23;20420;-79
2022/09/29 00:22:24;;;;;;;5.18;2.65;;;17.10;92.10;;;;;;6216469;23;19997;-78
2022/09/29 00:24:50;;;;;;;5.88;3.55;;;17.10;91.90;;;;;;6215656;23;20000;-79
2022/09/29 00:27:16;;;;;;;7.53;3.00;;;17.10;92.00;;;;;;6215316;23;20415;-79
2022/09/29 00:29:42;;;;;;;8.57;4.45;;;17.10;92.10;;;;;;6214823;23;20511;-80
2022/09/29 00:32:08;;;;;;;8.05;3.90;;;17.10;92.00;;;;;;6215225;23;20036;-79
2022/09/29 00:34:34;;;;;;;7.07;4.13;;;17.00;92.50;;;;;;6215213;23;20000;-80
2022/09/29 00:37:00;;;;;;;7.25;3.70;;;16.80;92.70;;;;;;6215476;23;20004;-79
2022/09/29 00:39:26;;;;;;;4.75;2.83;;;16.90;92.70;;;;;;6215541;23;20071;-79
2022/09/29 00:41:52;;;;;;;6.03;3.30;;;16.90;92.70;;;;;;6188718;23;20378;-79
2022/09/29 00:44:20;;;;;;;8.60;3.30;;;16.90;92.80;;;;;;6215549;23;20001;-79
2022/09/29 00:46:51;;;;;;;5.72;3.15;;;17.00;92.40;;;;;;6216078;23;20001;-79
2022/09/29 00:49:22;;;;;;;6.18;2.90;;;17.10;92.30;;;;;;6216024;23;20005;-78
2022/09/29 00:51:56;;;;;;;6.78;3.88;;;17.10;92.20;;;;;;6214975;23;20058;-78
2022/09/29 00:54:28;;;;;;;9.52;3.70;;;17.10;92.30;;;;;;6215457;23;20328;-78
2022/09/29 00:56:55;;;;;;;10.20;3.90;;;17.00;92.70;;;;;;6188636;23;20012;-76
2022/09/29 00:59:31;;;;;;;8.35;3.17;;;17.00;92.80;;;;;;6216046;23;20020;-76
2022/09/29 01:01:57;;;;;;;9.80;4.20;;;16.90;92.90;;;;;;6214831;23;20015;-76
2022/09/29 01:04:23;;;;;;;8.90;3.80;;;16.90;92.90;;;;;;6214891;23;20012;-76
2022/09/29 01:06:53;;;;;;;11.75;4.75;;;16.80;93.30;;;;;;6214816;23;20426;-76
2022/09/29 01:09:24;;;;;;;9.45;4.47;;;16.80;93.20;;;;;;6214812;23;20025;-76
2022/09/29 01:11:53;;;;;;;9.63;4.30;;;16.80;93.20;;;;;;6213766;23;20001;-76
2022/09/29 01:14:20;;;;;;;9.25;4.47;;;16.70;93.40;;;;;;6215034;23;20000;-75
2022/09/29 01:16:46;;;;;;;5.05;3.20;;;16.70;93.50;;;;;;6215217;23;20000;-76
2022/09/29 01:19:47;;;;;;;9.27;4.15;;;16.60;93.50;;;;;;6188689;23;20028;-76
2022/09/29 01:22:59;;;;;;;10.40;3.70;;;16.60;93.50;;;;;;6192107;23;20043;-75
2022/09/29 01:25:47;;;;;;;10.15;3.85;;;16.60;93.70;;;;;;6214931;23;20015;-76
2022/09/29 01:28:48;;;;;;;5.32;2.78;;;16.70;93.40;;;;;;6215200;23;20027;-75
2022/09/29 01:31:22;;;;;;;6.17;3.83;;;16.80;93.20;;;;;;6214521;23;20004;-77
2022/09/29 01:34:12;;;;;;;8.32;3.80;;;16.80;93.60;;;;;;6214680;23;20219;-77
2022/09/29 01:36:50;;;;;;;14.73;5.22;;;16.80;93.60;;;;;;6214611;23;20423;-77
2022/09/29 01:39:24;;;;;;;6.68;3.08;;;16.50;94.10;;;;;;6214515;23;20430;-77
2022/09/29 01:42:04;;;;;;;6.93;3.45;;;16.60;93.90;;;;;;6187043;23;20021;-76
2022/09/29 01:44:42;;;;;;;5.07;2.80;;;16.70;93.60;;;;;;6215377;23;20016;-77
2022/09/29 01:47:20;;;;;;;3.88;2.40;;;16.90;93.40;;;;;;6215257;23;20000;-77
2022/09/29 01:49:53;;;;;;;4.93;2.78;;;17.00;93.20;;;;;;6214621;23;20355;-76
2022/09/29 01:52:23;;;;;;;4.88;2.88;;;17.10;93.10;;;;;;6214926;23;20001;-76
2022/09/29 01:54:57;;;;;;;11.35;4.78;;;17.10;92.90;;;;;;6212742;23;20021;-80
2022/09/29 01:57:36;;;;;;;6.07;3.13;;;17.00;93.00;;;;;;6214751;23;20016;-79
2022/09/29 02:00:11;;;;;;;5.82;2.75;;;16.90;93.50;;;;;;6214832;23;20024;-78
2022/09/29 02:02:44;;;;;;;9.25;4.50;;;16.70;93.90;;;;;;6214319;23;20001;-77
2022/09/29 02:05:23;;;;;;;5.65;2.83;;;16.80;93.80;;;;;;6214871;23;20004;-77
2022/09/29 02:07:49;;;;;;;5.18;2.80;;;16.80;93.60;;;;;;6214537;23;20003;-79
2022/09/29 02:10:21;;;;;;;6.35;2.70;;;16.90;93.40;;;;;;6214260;23;20005;-78
2022/09/29 02:12:49;;;;;;;6.88;3.20;;;17.00;93.30;;;;;;6214265;23;20454;-78
2022/09/29 02:15:21;;;;;;;4.60;2.80;;;17.10;93.20;;;;;;6214553;23;20004;-76
2022/09/29 02:17:52;;;;;;;6.13;2.40;;;17.10;93.00;;;;;;6211957;23;20417;-77
2022/09/29 02:20:18;;;;;;;5.00;2.78;;;17.20;92.90;;;;;;6214332;23;20100;-77
2022/09/29 02:22:44;;;;;;;6.43;2.33;;;17.20;92.90;;;;;;6214085;23;20023;-76
2022/09/29 02:25:14;;;;;;;3.67;2.50;;;17.30;92.80;;;;;;6214515;23;20005;-77
2022/09/29 02:27:40;;;;;;;4.45;2.38;;;17.30;92.70;;;;;;6214468;23;20005;-76
2022/09/29 02:30:07;;;;;;;3.55;2.22;;;17.30;92.60;;;;;;6215148;23;20374;-76
2022/09/29 02:32:35;;;;;;;5.65;2.83;;;17.30;92.60;;;;;;6213985;23;20062;-77
2022/09/29 02:35:04;;;;;;;4.43;1.95;;;17.30;92.50;;;;;;6215046;23;20001;-78
2022/09/29 02:37:39;;;;;;;6.13;2.47;;;17.30;92.50;;;;;;6214442;23;20273;-76
2022/09/29 02:40:25;;;;;;;9.88;2.17;;;17.40;92.50;;;;;;6212430;23;20481;-76
2022/09/29 02:43:23;;;;;;;4.45;2.10;;;17.40;92.40;;;;;;6214267;23;20024;-77
2022/09/29 02:45:57;;;;;;;5.13;2.05;;;17.40;92.40;;;;;;6214413;23;20043;-77
2022/09/29 02:48:56;;;;;;;4.95;2.28;;;17.40;92.30;;;;;;6214463;23;20050;-76
2022/09/29 02:51:36;;;;;;;6.43;2.60;;;17.40;92.40;;;;;;6214263;23;20098;-76
2022/09/29 02:54:06;;;;;;;6.88;2.80;;;17.40;92.50;;;;;;6215031;23;20001;-75
2022/09/29 02:57:13;;;;;;;4.90;2.13;;;17.20;92.60;;;;;;6213428;23;20017;-78
2022/09/29 03:00:05;;;;;;;7.13;3.17;;;17.10;92.90;;;;;;6213353;23;20071;-78
2022/09/29 03:02:31;;;;;;;6.30;2.40;;;16.90;93.30;;;;;;6213685;23;20050;-78
2022/09/29 03:04:57;;;;;;;4.80;2.30;;;16.90;93.20;;;;;;6187388;23;20035;-78
2022/09/29 03:07:23;;;;;;;6.18;1.98;;;17.00;93.10;;;;;;6214897;23;20375;-78
2022/09/29 03:09:49;;;;;;;5.95;2.35;;;17.00;93.00;;;;;;6213850;23;20023;-78
2022/09/29 03:12:16;;;;;;;3.92;2.05;;;17.10;92.90;;;;;;6213580;23;20001;-79
2022/09/29 03:14:42;;;;;;;3.13;1.88;;;17.20;92.80;;;;;;6212616;23;20415;-79
2022/09/29 03:17:07;;;;;;;5.50;1.98;;;17.20;92.70;;;;;;6215096;23;20003;-79
2022/09/29 03:19:33;;;;;;;3.83;2.17;;;17.30;92.60;;;;;;6214415;23;20005;-78
2022/09/29 03:21:58;;;;;;;5.50;2.13;;;17.20;92.60;;;;;;6214504;23;20001;-79
2022/09/29 03:24:25;;;;;;;3.50;2.22;;;17.20;92.60;;;;;;6213577;23;20595;-80
2022/09/29 03:26:50;;;;;;;6.20;2.28;;;17.20;92.60;;;;;;6213786;23;20428;-80
2022/09/29 03:29:16;;;;;;;6.25;2.05;;;17.20;92.60;;;;;;6215277;23;20000;-80
2022/09/29 03:31:42;;;;;;;5.10;2.28;;;17.20;92.60;;;;;;6214354;23;20370;-79
2022/09/29 03:34:20;;;;;;;4.20;2.28;;;17.20;92.50;;;;;;6214125;23;20007;-79
2022/09/29 03:36:46;;;;;;;4.40;2.08;;;17.20;92.50;;;;;;6216737;23;20001;-80
2022/09/29 03:39:11;;;;;;;8.68;2.13;;;17.20;92.50;;;;;;6216093;23;20297;-79
2022/09/29 03:41:37;;;;;;;4.13;1.67;;;17.20;92.60;;;;;;6216436;23;20035;-79
2022/09/29 03:44:03;;;;;;;4.05;2.10;;;17.20;92.60;;;;;;6216791;23;20439;-78
2022/09/29 03:46:29;;;;;;;6.80;2.33;;;17.20;92.50;;;;;;6216385;23;20007;-78
2022/09/29 03:48:54;;;;;;;5.07;2.35;;;17.10;92.50;;;;;;6214626;23;20005;-78
2022/09/29 03:51:21;;;;;;;3.67;1.75;;;17.00;92.70;;;;;;6215302;23;20530;-77
2022/09/29 03:53:47;;;;;;;4.57;2.47;;;17.00;92.70;;;;;;6215825;23;20055;-78
2022/09/29 03:56:12;;;;;;;4.22;1.70;;;17.00;92.60;;;;;;6215533;23;20000;-78
2022/09/29 03:58:38;;;;;;;3.10;1.80;;;17.00;92.60;;;;;;6214631;23;20012;-76
2022/09/29 04:01:04;;;;;;;5.22;2.22;;;17.00;92.60;;;;;;6215510;23;20019;-77
2022/09/29 04:03:29;;;;;;;4.43;2.05;;;17.00;92.60;;;;;;6215530;23;20008;-78
2022/09/29 04:05:55;;;;;;;4.18;2.13;;;17.10;92.50;;;;;;6189133;23;20064;-77
2022/09/29 04:08:21;;;;;;;4.60;1.60;;;17.00;92.50;;;;;;6214658;23;20092;-77
2022/09/29 04:10:47;;;;;;;5.80;2.65;;;17.00;92.60;;;;;;6213925;23;20005;-77
2022/09/29 04:13:13;;;;;;;7.35;2.85;;;16.90;92.60;;;;;;6214005;23;20128;-79
2022/09/29 04:15:39;;;;;;;3.13;2.13;;;17.00;92.60;;;;;;6215234;23;20001;-80
2022/09/29 04:18:05;;;;;;;7.18;2.15;;;17.00;92.60;;;;;;6216700;23;20007;-79
2022/09/29 04:20:31;;;;;;;6.53;2.70;;;17.00;92.60;;;;;;6216176;23;20055;-80
2022/09/29 04:22:58;;;;;;;2.90;1.80;;;17.10;92.70;;;;;;6216026;23;20005;-80
2022/09/29 04:25:23;;;;;;;4.75;2.20;;;17.00;92.40;;;;;;6216156;23;20038;-80
2022/09/29 04:27:49;;;;;;;6.70;2.67;;;17.00;92.30;;;;;;6214786;23;20012;-81
2022/09/29 04:30:15;;;;;;;6.63;2.28;;;16.90;92.30;;;;;;6189684;23;20008;-78
2022/09/29 04:32:41;;;;;;;5.93;2.63;;;16.90;92.40;;;;;;6215245;23;20028;-78
2022/09/29 04:35:07;;;;;;;6.30;2.35;;;16.90;92.40;;;;;;6216060;23;20015;-77
2022/09/29 04:37:33;;;;;;;4.10;1.98;;;16.90;92.50;;;;;;6215265;23;20412;-78
2022/09/29 04:39:59;;;;;;;4.38;2.53;;;16.90;92.50;;;;;;6215576;23;20011;-79
2022/09/29 04:42:25;;;;;;;3.65;1.95;;;16.90;92.50;;;;;;6213847;23;20083;-81
2022/09/29 04:44:51;;;;;;;5.82;2.42;;;16.90;92.50;;;;;;6215809;23;20009;-80
2022/09/29 04:47:16;;;;;;;9.02;2.83;;;16.90;92.50;;;;;;6188955;23;20012;-78
2022/09/29 04:49:42;;;;;;;4.65;2.13;;;16.90;92.50;;;;;;6215069;23;20008;-78
2022/09/29 04:52:12;;;;;;;8.68;2.58;;;16.90;92.50;;;;;;6189179;23;20005;-78
2022/09/29 04:54:38;;;;;;;5.63;2.22;;;16.90;92.50;;;;;;6214582;23;20082;-77
2022/09/29 04:57:06;;;;;;;8.45;2.67;;;16.90;92.50;;;;;;6214124;23;20443;-78
2022/09/29 04:59:32;;;;;;;3.67;2.10;;;16.80;92.50;;;;;;6212751;23;20316;-77
2022/09/29 05:01:58;;;;;;;5.43;2.50;;;16.80;92.50;;;;;;6213739;23;20378;-79
2022/09/29 05:04:23;;;;;;;3.22;1.83;;;16.80;92.50;;;;;;6212312;23;20412;-78
2022/09/29 05:06:49;;;;;;;4.40;2.55;;;16.90;92.50;;;;;;6205998;23;20015;-78
2022/09/29 05:09:15;;;;;;;8.38;2.83;;;16.90;92.50;;;;;;6211906;23;20485;-78
2022/09/29 05:11:41;;;;;;;7.35;1.67;;;16.70;92.60;;;;;;6212852;23;20000;-78
2022/09/29 05:14:07;;;;;;;6.38;2.38;;;16.70;92.70;;;;;;6187221;23;20313;-77
2022/09/29 05:16:34;;;;;;;5.45;2.28;;;16.70;92.60;;;;;;6212882;23;19996;-77
2022/09/29 05:19:01;;;;;;;5.82;2.60;;;16.70;92.50;;;;;;6210518;23;20009;-77
2022/09/29 05:21:26;;;;;;;7.25;2.50;;;16.80;92.50;;;;;;6213933;23;20081;-77
2022/09/29 05:23:52;;;;;;;6.50;2.80;;;16.80;92.50;;;;;;6213968;23;20040;-75
2022/09/29 05:26:18;;;;;;;5.30;2.58;;;16.80;92.50;;;;;;6187122;23;20009;-75
2022/09/29 05:28:46;;;;;;;4.38;2.15;;;16.80;92.50;;;;;;6213689;23;20044;-75
2022/09/29 05:31:12;;;;;;;5.95;2.65;;;16.80;92.40;;;;;;6213458;23;20012;-87
2022/09/29 05:33:38;;;;;;;7.88;2.30;;;16.80;92.40;;;;;;6213176;23;20029;-75
2022/09/29 05:36:08;;;;;;;3.33;2.33;;;16.90;92.40;;;;;;6212163;23;20063;-75
2022/09/29 05:38:37;;;;;;;6.78;3.00;;;16.90;92.40;;;;;;6213286;23;19997;-76
2022/09/29 05:41:05;;;;;;;3.33;2.25;;;16.90;92.30;;;;;;6213916;23;20088;-76
2022/09/29 05:43:30;;;;;;;4.75;2.50;;;17.00;92.30;;;;;;6213391;23;20001;-76
2022/09/29 05:46:01;;;;;;;5.88;2.55;;;17.00;92.20;;;;;;6212507;23;20008;-76
2022/09/29 05:48:29;;;;;;;4.60;2.25;;;16.90;92.20;;;;;;6212818;23;20324;-76
2022/09/29 05:50:55;;;;;;;6.75;2.78;;;16.90;92.20;;;;;;6214105;23;20412;-75
2022/09/29 05:53:21;;;;;;;7.13;2.10;;;16.90;92.30;;;;;;6213874;23;20001;-76
2022/09/29 05:55:46;;;;;;;7.13;2.33;;;16.90;92.30;;;;;;6213190;23;20000;-78
2022/09/29 05:58:12;;;;;;;4.80;2.08;;;17.00;92.40;;;;;;6161088;23;1255327;-78
2022/09/29 06:00:39;;;;;;;5.60;2.30;;;17.00;92.40;;;;;;6214535;23;20103;-74
2022/09/29 06:03:04;;;;;;;4.82;2.20;;;17.00;92.40;;;;;;6188314;23;20034;-75
2022/09/29 06:05:30;;;;;;;4.78;2.50;;;17.00;92.40;;;;;;6214952;23;20451;-80
2022/09/29 06:07:56;;;;;;;5.95;2.33;;;17.10;92.40;;;;;;6215425;23;20005;-80
2022/09/29 06:10:21;;;;;;;9.80;4.57;;;17.10;92.40;;;;;;6215366;23;20052;-79
2022/09/29 06:12:47;;;;;;;5.75;2.63;;;17.20;92.20;;;;;;6215555;23;20028;-80
2022/09/29 06:15:13;;;;;;;5.40;2.20;;;17.30;92.10;;;;;;6214993;23;20008;-79
2022/09/29 06:17:38;;;;;;;5.05;2.10;;;17.30;92.10;;;;;;6215377;23;20027;-80
2022/09/29 06:20:08;;;;;;;5.10;2.72;;;17.30;92.10;;;;;;6188689;23;20091;-78
2022/09/29 06:22:34;;;;;;;7.23;2.63;;;17.30;91.90;;;;;;6214414;23;20416;-79
2022/09/29 06:24:59;;;;;;;5.20;2.30;;;17.20;91.90;;;;;;6214716;23;20341;-79
2022/09/29 06:27:25;;;;;;;7.65;3.05;;;17.30;92.00;;;;;;6215419;23;20004;-78
2022/09/29 06:29:51;;;;;;;4.43;2.28;;;17.30;91.80;;;;;;6215326;23;20015;-79
2022/09/29 06:32:16;;;;;;;4.45;2.22;;;17.20;91.90;;;;;;6214961;23;20005;-78
2022/09/29 06:37:36;;;;;;;5.22;2.30;;;17.30;91.90;;;;;;6215838;23;20445;-78
2022/09/29 06:40:07;;;;;;;6.45;2.30;;;17.30;91.90;;;;;;6214979;23;20007;-78
2022/09/29 06:42:34;;;;;;;4.63;2.38;;;17.40;91.90;;;;;;6215470;23;20051;-78
2022/09/29 06:44:59;;;;;;;7.55;2.60;;;17.30;91.90;;;;;;6215356;23;20016;-79
2022/09/29 06:47:25;;;;;;;5.97;2.42;;;17.40;91.90;;;;;;6214955;23;20000;-78
2022/09/29 06:49:51;;;;;;;5.47;2.28;;;17.40;92.00;;;;;;6214891;23;20561;-78
2022/09/29 06:52:17;;;;;;;9.75;3.53;;;17.50;92.00;;;;;;6215369;23;20005;-73
2022/09/29 06:54:43;;;;;;;6.32;2.47;;;17.60;91.90;;;;;;6214725;23;20035;-73
2022/09/29 06:57:09;;;;;;;10.73;3.65;;;17.70;91.80;;;;;;6215328;23;20012;-72
2022/09/29 06:59:35;;;;;;;8.63;2.60;;;17.70;91.50;;;;;;6215166;23;20624;-73
2022/09/29 07:02:00;;;;;;;3.78;2.05;;;17.60;91.40;;;;;;6215273;23;20005;-79
2022/09/29 07:04:26;;;;;;;5.35;2.30;;;17.70;91.50;;;;;;6215272;23;20422;-79
2022/09/29 07:06:52;;;;;;;7.13;2.15;;;17.60;91.50;;;;;;6215236;23;20076;-79
2022/09/29 07:09:19;;;;;;;7.38;2.45;;;17.70;91.40;;;;;;6215867;23;20000;-79
2022/09/29 07:11:48;;;;;;;9.05;2.55;;;17.60;91.00;;;;;;6217463;23;20001;-79
2022/09/29 07:14:14;;;;;;;7.80;2.30;;;17.70;91.20;;;;;;6216973;23;20007;-78
2022/09/29 07:16:41;;;;;;;6.82;2.38;;;17.70;91.20;;;;;;6217452;23;20000;-73
2022/09/29 07:19:06;;;;;;;10.02;3.08;;;17.80;91.20;;;;;;6216995;23;20005;-73
2022/09/29 07:21:32;;;;;;;7.93;2.47;;;17.90;91.00;;;;;;6216740;23;20450;-72
2022/09/29 07:23:58;;;;;;;4.60;2.33;;;17.90;90.50;;;;;;6216711;23;20008;-72
2022/09/29 07:26:23;;;;;;;3.67;2.35;;;18.00;90.50;;;;;;6217379;23;20479;-73
2022/09/29 07:28:49;;;;;;;3.20;1.55;;;18.00;90.70;;;;;;6211051;23;20391;-72
2022/09/29 07:31:19;;;;;;;3.63;1.90;;;18.20;90.80;;;;;;6214159;23;20096;-78
2022/09/29 07:33:47;;;;;;;5.32;1.85;;;18.30;90.70;;;;;;6212706;23;20435;-78
2022/09/29 07:36:15;;;;;;;6.25;2.20;;;18.50;90.50;;;;;;6215485;23;20654;-78
2022/09/29 07:38:40;;;;;;;5.28;1.77;;;18.60;90.50;;;;;;6215565;23;20004;-78
2022/09/29 07:41:10;;;;;;;3.08;1.50;;;18.80;90.30;;;;;;6215856;23;20004;-78
2022/09/29 07:43:37;;;;;;;3.42;1.40;;;18.80;90.20;;;;;;6216514;23;20000;-79
2022/09/29 07:46:03;;;;;;;8.45;2.03;;;19.00;90.10;;;;;;6165233;23;20375;-79
2022/09/29 07:48:30;;;;;;;4.53;1.63;;;19.10;90.00;;;;;;6215062;23;20454;-78
2022/09/29 07:51:22;;;;;;;3.28;1.40;;;19.20;89.40;;;;;;6215879;23;20030;-78
2022/09/29 07:53:49;;;;;;;3.53;1.98;;;19.30;89.20;;;;;;6186379;23;20005;-80
2022/09/29 07:56:20;;;;;;;5.43;1.75;;;19.40;89.00;;;;;;6216118;23;20067;-79
2022/09/29 07:58:48;;;;;;;5.00;1.13;;;19.50;88.80;;;;;;6216383;23;20004;-79
2022/09/29 08:01:15;;;;;;;4.25;1.13;;;19.60;88.70;;;;;;6188655;23;20339;-79
2022/09/29 08:03:49;;;;;;;3.25;1.38;;;19.70;88.50;;;;;;6216031;23;20005;-80
2022/09/29 08:06:15;;;;;;;3.90;1.60;;;19.70;88.20;;;;;;6216037;23;20008;-81
2022/09/29 08:08:41;;;;;;;4.97;1.48;;;19.70;86.60;;;;;;6216010;23;20015;-81
2022/09/29 08:11:10;;;;;;;5.10;1.33;;;19.70;87.40;;;;;;6215633;23;20001;-81
2022/09/29 08:13:36;;;;;;;4.22;1.77;;;19.70;87.50;;;;;;6214083;23;20042;-81
2022/09/29 08:16:05;;;;;;;3.08;1.05;;;19.80;87.50;;;;;;6215641;23;20001;-81
2022/09/29 08:18:32;;;;;;;4.97;1.50;;;19.70;87.40;;;;;;6215664;23;20001;-81
2022/09/29 08:20:58;;;;;;;4.63;1.25;;;19.80;87.60;;;;;;6215070;23;20475;-81
2022/09/29 08:23:23;;;;;;;4.00;1.30;;;19.80;87.50;;;;;;6216087;23;20009;-80
2022/09/29 08:25:57;;;;;;;3.90;1.17;;;19.80;87.60;;;;;;6215516;23;20036;-81
2022/09/29 08:28:23;;;;;;;5.60;1.27;;;19.90;87.70;;;;;;6215584;23;20005;-81
2022/09/29 08:30:49;;;;;;;6.90;1.48;;;19.90;87.60;;;;;;6215348;23;20004;-81
2022/09/29 08:33:15;;;;;;;4.88;1.23;;;20.00;87.50;;;;;;6188782;23;20304;-75
2022/09/29 08:35:40;;;;;;;9.27;1.45;;;20.00;87.40;;;;;;6187704;23;20019;-74
2022/09/29 08:38:06;;;;;;;5.35;1.73;;;20.00;87.60;;;;;;6215066;23;20004;-81
2022/09/29 08:40:33;;;;;;;3.97;1.60;;;20.00;87.60;;;;;;6215572;23;20008;-82
2022/09/29 08:43:17;;;;;;;5.53;1.52;;;20.00;86.80;;;;;;6215860;23;20330;-81
2022/09/29 08:45:53;;;;;;;6.10;1.27;;;19.90;87.00;;;;;;6216126;23;20001;-81
2022/09/29 08:48:22;;;;;;;6.22;2.10;;;19.90;87.10;;;;;;6215168;23;20028;-81
2022/09/29 08:51:02;;;;;;;2.92;1.30;;;19.90;86.50;;;;;;6212462;23;20005;-83
2022/09/29 08:53:32;;;;;;;3.38;1.45;;;19.90;86.90;;;;;;6215583;23;20005;-82
2022/09/29 08:56:03;;;;;;;5.55;1.50;;;19.90;87.20;;;;;;6215360;23;20000;-80
2022/09/29 08:58:30;;;;;;;5.43;1.85;;;20.00;87.30;;;;;;6216198;23;20004;-81
2022/09/29 09:01:02;;;;;;;5.18;1.60;;;20.10;87.30;;;;;;6215818;23;20347;-80
2022/09/29 09:03:31;;;;;;;4.03;1.52;;;20.20;87.00;;;;;;6216123;23;20008;-81
2022/09/29 09:06:17;;;;;;;4.82;1.30;;;20.30;86.80;;;;;;6214637;23;20031;-81
2022/09/29 09:09:17;;;;;;;15.18;2.80;;;20.40;86.50;;;;;;6216635;23;20001;-83
2022/09/29 09:11:45;;;;;;;;;;;20.60;86.50;;;;;;6216396;23;20001;-80
2022/09/29 09:14:11;;;;;;;4.90;1.48;;;20.70;86.30;;;;;;6215859;23;19904;-79
2022/09/29 09:17:09;;;;;;;5.13;1.35;;;20.90;86.20;;;;;;6215959;23;20004;-82
2022/09/29 09:19:54;;;;;;;4.07;1.42;;;21.00;85.90;;;;;;6216638;23;20004;-82
2022/09/29 09:22:36;;;;;;;1.90;0.95;;;21.20;85.80;;;;;;6215957;23;20005;-80
2022/09/29 09:25:25;;;;;;;4.63;1.45;;;21.40;85.20;;;;;;6215489;23;20005;-81
2022/09/29 09:28:16;;;;;;;4.00;1.17;;;21.60;85.00;;;;;;6215818;23;20002;-82
2022/09/29 09:30:57;;;;;;;3.72;1.58;;;21.70;84.40;;;;;;6188745;23;20271;-82
2022/09/29 09:33:52;;;;;;;4.40;1.38;;;21.90;84.20;;;;;;6215417;23;20032;-74
2022/09/29 09:36:36;;;;;;;4.70;1.60;;;22.10;84.10;;;;;;6207005;23;20001;-74
2022/09/29 09:39:17;;;;;;;3.40;1.55;;;22.30;83.30;;;;;;6216199;23;20004;-74
2022/09/29 09:41:44;;;;;;;;;;;22.50;83.20;;;;;;6216291;23;20560;-74
2022/09/29 09:44:16;;;;;;;4.03;1.15;;;22.70;81.80;;;;;;6215929;23;20373;-74
2022/09/29 09:47:03;;;;;;;3.72;1.60;;;22.90;82.60;;;;;;6214192;23;20011;-74
2022/09/29 09:49:35;;;;;;;4.10;1.42;;;23.10;82.50;;;;;;6215918;23;20666;-75
2022/09/29 09:52:12;;;;;;;6.72;1.77;;;23.30;82.00;;;;;;6215512;23;20087;-75
2022/09/29 09:54:44;;;;;;;4.07;1.27;;;23.40;81.40;;;;;;6215682;23;20001;-75
2022/09/29 09:57:34;;;;;;;3.10;1.20;;;23.60;81.20;;;;;;6215360;23;20123;-75
2022/09/29 10:00:10;;;;;;;4.85;1.40;;;23.80;80.80;;;;;;6215422;23;20435;-75
2022/09/29 10:02:50;;;;;;;4.57;1.13;;;23.90;80.40;;;;;;6214884;23;20347;-75
2022/09/29 10:05:25;;;;;;;4.20;1.60;;;23.90;78.80;;;;;;6215412;23;20008;-75
2022/09/29 10:07:52;;;;;;;5.88;1.30;;;23.90;77.30;;;;;;6215593;23;20005;-76
2022/09/29 10:10:24;;;;;;;6.13;1.48;;;23.80;78.70;;;;;;6215396;23;20330;-77
2022/09/29 10:12:56;;;;;;;2.17;1.10;;;23.70;78.40;;;;;;6215850;23;20009;-77
2022/09/29 10:15:44;;;;;;;5.07;1.25;;;23.60;79.00;;;;;;6215492;23;20020;-77
2022/09/29 10:18:11;;;;;;;8.23;1.50;;;23.50;78.70;;;;;;6208148;23;20427;-77
2022/09/29 10:20:40;;;;;;;7.72;1.73;;;23.30;78.50;;;;;;6212987;23;20012;-77
2022/09/29 10:23:32;;;;;;;4.97;1.20;;;23.10;78.50;;;;;;6215134;23;20028;-77
2022/09/29 10:26:19;;;;;;;4.60;1.63;;;22.90;79.60;;;;;;6215078;23;20005;-77
2022/09/29 10:28:57;;;;;;;3.60;1.08;;;22.80;80.00;;;;;;6214613;23;20001;-77
2022/09/29 10:31:34;;;;;;;5.13;1.25;;;22.70;80.30;;;;;;6213434;23;20008;-78
2022/09/29 10:34:02;;;;;;;5.40;1.13;;;22.70;80.70;;;;;;6213889;23;20001;-78
2022/09/29 10:36:47;;;;;;;5.47;1.50;;;22.80;80.60;;;;;;6214720;23;20007;-78
2022/09/29 10:39:31;;;;;;;7.80;1.70;;;22.80;80.30;;;;;;6214560;23;20382;-78
2022/09/29 10:41:57;;;;;;;3.35;1.27;;;22.90;80.00;;;;;;6213433;23;20001;-77
2022/09/29 10:44:23;;;;;;;4.25;1.38;;;23.00;80.40;;;;;;6213594;23;20011;-77
2022/09/29 10:46:54;;;;;;;3.45;1.10;;;23.10;80.20;;;;;;6208995;23;20028;-77
2022/09/29 10:49:22;;;;;;;3.33;1.05;;;23.20;79.10;;;;;;6213241;23;20080;-77
2022/09/29 10:52:04;;;;;;;4.65;1.70;;;23.20;79.60;;;;;;6213268;23;20423;-79
2022/09/29 10:54:52;;;;;;;4.53;2.05;;;23.20;78.50;;;;;;6212524;23;20004;-77
2022/09/29 10:57:25;;;;;;;4.60;1.70;;;23.20;78.60;;;;;;6213516;23;20012;-78
2022/09/29 10:59:53;;;;;;;7.60;1.60;;;23.10;78.90;;;;;;6214259;23;20004;-78
2022/09/29 11:02:38;;;;;;;3.83;1.70;;;23.30;79.40;;;;;;6186431;23;20012;-78
2022/09/29 11:05:25;;;;;;;4.07;1.65;;;23.50;77.80;;;;;;6214465;23;20004;-81
2022/09/29 11:07:52;;;;;;;11.15;2.50;;;23.60;76.90;;;;;;6215531;23;20004;-81
2022/09/29 11:10:27;;;;;;;7.82;2.40;;;23.50;77.00;;;;;;6215079;23;20009;-81
2022/09/29 11:12:54;;;;;;;5.72;2.47;;;23.40;77.00;;;;;;6215388;23;20039;-81
2022/09/29 11:15:39;;;;;;;6.78;2.22;;;23.60;77.90;;;;;;6215162;23;20459;-80
2022/09/29 11:18:30;;;;;;;5.07;2.05;;;23.80;77.20;;;;;;6214432;23;20028;-81
2022/09/29 11:21:34;;;;;;;6.15;1.80;;;23.90;77.30;;;;;;6215363;23;20001;-81
2022/09/29 11:24:35;;;;;;;9.02;2.92;;;24.10;76.60;;;;;;6215285;23;20001;-81
2022/09/29 11:27:22;;;;;;;6.63;2.53;;;23.70;76.20;;;;;;6193899;23;20019;-79
2022/09/29 11:30:05;;;;;;;3.22;1.65;;;23.80;76.50;;;;;;6215062;23;20005;-79
2022/09/29 11:32:49;;;;;;;4.50;1.73;;;23.90;77.00;;;;;;6214867;23;20445;-79
2022/09/29 11:35:45;;;;;;;6.80;2.42;;;24.30;77.00;;;;;;6215238;23;20370;-80
2022/09/29 11:38:31;;;;;;;6.97;2.10;;;24.90;74.30;;;;;;6214662;23;20028;-81
2022/09/29 11:40:57;;;;;;;6.47;2.17;;;25.40;73.10;;;;;;6214908;23;20055;-80
2022/09/29 11:43:32;;;;;;;5.80;1.83;;;25.40;72.10;;;;;;6214829;23;20009;-81
2022/09/29 11:46:30;;;;;;;8.25;2.40;;;25.70;72.70;;;;;;6215251;23;20315;-81
2022/09/29 11:49:11;;;;;;;5.47;1.95;;;25.80;71.70;;;;;;6214908;23;20012;-81
2022/09/29 11:52:19;;;;;;;6.90;1.80;;;26.00;72.00;;;;;;6214935;23;20032;-81
2022/09/29 11:55:04;;;;;;;4.30;1.58;;;25.30;70.40;;;;;;6215533;23;20055;-79
2022/09/29 11:57:57;;;;;;;5.18;1.67;;;25.40;72.30;;;;;;6216543;23;20490;-80
2022/09/29 12:00:53;;;;;;;3.10;1.60;;;25.90;72.40;;;;;;6217246;23;20000;-81
2022/09/29 12:03:44;;;;;;;6.68;2.40;;;26.50;71.50;;;;;;6211366;23;20335;-81
2022/09/29 12:06:09;;;;;;;;;;;26.90;70.00;;;;;;6216640;23;19997;-80
2022/09/29 12:08:52;;;;;;;4.53;1.55;;;27.20;68.60;;;;;;6215243;23;19907;-81
2022/09/29 12:12:03;;;;;;;4.88;1.85;;;27.30;68.10;;;;;;6216030;23;20005;-80
2022/09/29 12:14:41;;;;;;;6.35;1.83;;;27.60;67.20;;;;;;6192782;23;20001;-80
2022/09/29 12:17:16;;;;;;;4.15;1.67;;;27.80;67.30;;;;;;6216630;23;20323;-76
2022/09/29 12:19:43;;;;;;;7.50;1.75;;;28.00;66.50;;;;;;6216163;23;20001;-76
2022/09/29 12:22:16;;;;;;;4.93;1.70;;;28.00;65.50;;;;;;6215641;23;20096;-76
2022/09/29 12:24:47;;;;;;;13.10;2.88;;;28.10;65.00;;;;;;6215120;23;20009;-75
2022/09/29 12:27:23;;;;;;;5.32;1.80;;;27.90;64.80;;;;;;6216110;23;20000;-75
2022/09/29 12:29:57;;;;;;;6.70;2.40;;;28.00;65.60;;;;;;6214611;23;20005;-75
2022/09/29 12:32:36;;;;;;;5.35;2.00;;;28.20;64.50;;;;;;6214798;23;20502;-75
2022/09/29 12:35:16;;;;;;;5.00;1.77;;;28.10;63.50;;;;;;6215591;23;20000;-75
2022/09/29 12:37:56;;;;;;;4.80;2.10;;;28.10;63.60;;;;;;6216461;23;20000;-75
2022/09/29 12:40:35;;;;;;;4.18;1.60;;;28.10;64.20;;;;;;6215702;23;20001;-76
2022/09/29 12:43:19;;;;;;;5.57;1.80;;;28.20;64.40;;;;;;6207608;23;20319;-82
2022/09/29 12:46:17;;;;;;;3.55;1.70;;;28.10;64.50;;;;;;6215482;23;20107;-81
2022/09/29 12:49:40;;;;;;;5.43;1.67;;;27.90;64.30;;;;;;6214254;23;20003;-82
2022/09/29 12:52:23;;;;;;;3.90;1.40;;;27.50;64.00;;;;;;6151925;23;20073;-82
2022/09/29 12:54:56;;;;;;;4.38;1.70;;;27.20;64.80;;;;;;6154010;23;20005;-82
2022/09/29 12:57:26;;;;;;;5.55;2.10;;;26.90;65.40;;;;;;6200978;23;20021;-82
2022/09/29 13:00:14;;;;;;;5.45;1.50;;;26.70;66.00;;;;;;6214184;23;20005;-82
2022/09/29 13:03:31;;;;;;;4.78;1.55;;;26.40;66.90;;;;;;6213872;23;20005;-81
2022/09/29 13:06:14;;;;;;;4.00;1.45;;;26.10;67.30;;;;;;6181473;23;20055;-82
2022/09/29 13:08:46;;;;;;;6.07;2.00;;;25.90;68.20;;;;;;6215895;23;20008;-82
2022/09/29 13:11:36;;;;;;;5.97;1.83;;;25.80;68.70;;;;;;6215864;23;20374;-81
2022/09/29 13:14:11;;;;;;;4.97;1.73;;;25.70;68.90;;;;;;6214991;23;20374;-81
2022/09/29 13:17:01;;;;;;;5.68;1.60;;;25.50;69.00;;;;;;6215374;23;20016;-82
2022/09/29 13:19:40;;;;;;;6.32;1.65;;;25.50;68.80;;;;;;6216294;23;20004;-81